Time;durP1;ratioP1;P1;durP2;ratioP2;P2;SDS_P1;SDS_P2;PMS_P1;PMS_P2;Temp;Humidity;BMP_temperature;BMP_pressure;BME280_temperature;BME280_humidity;BME280_pressure;Samples;Min_cycle;Max_cycle;Signal;HPM_P1;HPM_P2
2024/01/18 00:00:04;;;;;;;30.88;20.00;;;;;;;;;;685171;28;1813;-68
2024/01/18 00:00:27;;;;;;;32.25;21.17;;;;;;;;;;686374;28;1301;-68
2024/01/18 00:00:47;;;;;;;31.77;20.70;;;;;;;;;;681932;28;1426;-68
2024/01/18 00:01:08;;;;;;;31.53;20.67;;;;;;;;;;679238;29;1268;-68
2024/01/18 00:01:32;;;;;;;30.98;20.65;;;;;;;;;;681578;29;1196;-69
2024/01/18 00:01:52;;;;;;;31.60;20.40;;;;;;;;;;678522;28;4440;-69
2024/01/18 00:02:12;;;;;;;30.50;19.97;;;;;;;;;;680889;29;850;-69
2024/01/18 00:02:33;;;;;;;31.42;19.55;;;;;;;;;;683273;28;1414;-69
2024/01/18 00:02:53;;;;;;;32.10;20.10;;;;;;;;;;684529;28;1989;-69
2024/01/18 00:03:14;;;;;;;30.38;20.13;;;;;;;;;;686932;28;1022;-69
2024/01/18 00:03:39;;;;;;;31.70;20.53;;;;;;;;;;684507;28;923;-69
2024/01/18 00:03:59;;;;;;;34.42;20.35;;;;;;;;;;686707;28;1856;-69
2024/01/18 00:04:20;;;;;;;32.03;19.85;;;;;;;;;;684891;28;1627;-69
2024/01/18 00:04:41;;;;;;;31.65;20.38;;;;;;;;;;684513;28;1331;-68
2024/01/18 00:05:02;;;;;;;32.85;20.77;;;;;;;;;;683338;28;4504;-68
2024/01/18 00:05:22;;;;;;;31.15;20.50;;;;;;;;;;684952;28;849;-68
2024/01/18 00:05:43;;;;;;;30.10;19.93;;;;;;;;;;684185;28;1132;-68
2024/01/18 00:06:04;;;;;;;29.23;19.98;;;;;;;;;;681490;28;1263;-68
2024/01/18 00:06:24;;;;;;;30.25;19.92;;;;;;;;;;685047;28;941;-67
2024/01/18 00:06:45;;;;;;;31.90;20.23;;;;;;;;;;686054;28;1116;-68
2024/01/18 00:07:06;;;;;;;32.22;20.35;;;;;;;;;;681828;28;1762;-68
2024/01/18 00:07:27;;;;;;;34.17;20.42;;;;;;;;;;684551;28;1428;-67
2024/01/18 00:07:48;;;;;;;32.46;19.96;;;;;;;;;;684519;28;4307;-67
2024/01/18 00:08:09;;;;;;;29.63;20.10;;;;;;;;;;686998;28;1181;-68
2024/01/18 00:08:31;;;;;;;30.10;20.15;;;;;;;;;;686946;28;885;-68
2024/01/18 00:08:52;;;;;;;29.45;19.42;;;;;;;;;;686288;28;2076;-68
2024/01/18 00:09:13;;;;;;;31.05;19.60;;;;;;;;;;687646;28;944;-68
2024/01/18 00:09:35;;;;;;;30.58;19.63;;;;;;;;;;687386;28;889;-68
2024/01/18 00:09:55;;;;;;;31.80;19.85;;;;;;;;;;688938;28;1966;-68
2024/01/18 00:10:16;;;;;;;30.92;19.42;;;;;;;;;;690332;28;817;-70
2024/01/18 00:10:37;;;;;;;29.50;19.00;;;;;;;;;;689502;28;1531;-70
2024/01/18 00:10:58;;;;;;;28.38;19.80;;;;;;;;;;688945;28;4415;-69
2024/01/18 00:11:18;;;;;;;30.42;20.25;;;;;;;;;;687728;28;1330;-68
2024/01/18 00:11:38;;;;;;;31.93;20.53;;;;;;;;;;686845;28;1013;-68
2024/01/18 00:11:58;;;;;;;30.03;19.90;;;;;;;;;;686547;28;1859;-68
2024/01/18 00:12:19;;;;;;;28.85;19.55;;;;;;;;;;686954;28;941;-73
2024/01/18 00:12:39;;;;;;;29.20;19.37;;;;;;;;;;687099;28;969;-68
2024/01/18 00:12:59;;;;;;;28.80;19.92;;;;;;;;;;686686;28;1686;-68
2024/01/18 00:13:20;;;;;;;30.40;20.63;;;;;;;;;;688024;28;778;-68
2024/01/18 00:13:41;;;;;;;32.87;21.80;;;;;;;;;;687084;28;1266;-68
2024/01/18 00:14:02;;;;;;;32.70;22.30;;;;;;;;;;685415;28;4321;-69
2024/01/18 00:14:23;;;;;;;31.33;21.33;;;;;;;;;;686692;28;1392;-68
2024/01/18 00:14:43;;;;;;;30.83;20.90;;;;;;;;;;686542;28;920;-68
2024/01/18 00:15:03;;;;;;;31.37;20.67;;;;;;;;;;686526;28;2376;-68
2024/01/18 00:15:23;;;;;;;32.10;20.50;;;;;;;;;;687683;28;916;-68
2024/01/18 00:15:44;;;;;;;30.67;20.30;;;;;;;;;;687175;28;1197;-68
2024/01/18 00:16:04;;;;;;;30.67;19.83;;;;;;;;;;686033;28;1797;-68
2024/01/18 00:16:24;;;;;;;29.20;19.73;;;;;;;;;;687931;28;901;-68
2024/01/18 00:16:45;;;;;;;29.70;19.70;;;;;;;;;;687008;28;4357;-69
2024/01/18 00:17:05;;;;;;;28.07;19.50;;;;;;;;;;686834;28;1102;-68
2024/01/18 00:17:25;;;;;;;29.03;19.30;;;;;;;;;;687816;28;1346;-68
2024/01/18 00:17:45;;;;;;;30.08;19.27;;;;;;;;;;686723;28;1159;-68
2024/01/18 00:18:06;;;;;;;29.57;19.80;;;;;;;;;;685903;28;1563;-68
2024/01/18 00:18:26;;;;;;;26.70;19.37;;;;;;;;;;688085;28;1253;-68
2024/01/18 00:18:47;;;;;;;27.52;19.15;;;;;;;;;;687085;28;1392;-68
2024/01/18 00:19:07;;;;;;;28.80;19.00;;;;;;;;;;686786;28;1786;-68
2024/01/18 00:19:27;;;;;;;30.30;20.00;;;;;;;;;;687888;28;1053;-68
2024/01/18 00:19:47;;;;;;;30.90;19.67;;;;;;;;;;686119;28;4453;-68
2024/01/18 00:20:08;;;;;;;31.47;20.00;;;;;;;;;;682922;28;1988;-68
2024/01/18 00:20:29;;;;;;;29.67;18.88;;;;;;;;;;684730;28;1578;-68
2024/01/18 00:20:49;;;;;;;28.50;18.00;;;;;;;;;;684755;28;1410;-68
2024/01/18 00:21:10;;;;;;;27.93;18.40;;;;;;;;;;683483;28;3218;-68
2024/01/18 00:21:30;;;;;;;28.07;18.67;;;;;;;;;;687000;28;1469;-68
2024/01/18 00:21:50;;;;;;;29.47;19.43;;;;;;;;;;684947;28;888;-68
2024/01/18 00:22:11;;;;;;;31.13;20.00;;;;;;;;;;683542;28;1640;-68
2024/01/18 00:22:31;;;;;;;30.20;19.73;;;;;;;;;;682024;29;1506;-69
2024/01/18 00:22:51;;;;;;;29.37;19.60;;;;;;;;;;682098;28;4452;-69
2024/01/18 00:23:11;;;;;;;29.70;19.53;;;;;;;;;;686371;28;1764;-69
2024/01/18 00:23:31;;;;;;;31.20;19.77;;;;;;;;;;687507;28;897;-69
2024/01/18 00:23:52;;;;;;;30.73;19.37;;;;;;;;;;687585;28;1488;-69
2024/01/18 00:24:12;;;;;;;29.73;19.30;;;;;;;;;;686461;28;920;-69
2024/01/18 00:24:32;;;;;;;27.10;19.13;;;;;;;;;;687339;28;882;-69
2024/01/18 00:24:52;;;;;;;28.27;19.50;;;;;;;;;;685990;28;2380;-68
2024/01/18 00:25:13;;;;;;;27.83;18.75;;;;;;;;;;684162;28;936;-68
2024/01/18 00:25:33;;;;;;;27.60;19.17;;;;;;;;;;683892;28;1374;-69
2024/01/18 00:25:53;;;;;;;28.03;18.80;;;;;;;;;;684695;28;4377;-69
2024/01/18 00:26:14;;;;;;;30.13;19.05;;;;;;;;;;687004;28;1307;-68
2024/01/18 00:26:34;;;;;;;29.30;18.37;;;;;;;;;;687491;28;1107;-69
2024/01/18 00:26:54;;;;;;;28.30;18.60;;;;;;;;;;691573;28;1928;-68
2024/01/18 00:27:14;;;;;;;28.17;18.85;;;;;;;;;;691915;28;1469;-69
2024/01/18 00:27:35;;;;;;;29.63;18.37;;;;;;;;;;692884;28;1397;-69
2024/01/18 00:27:55;;;;;;;28.00;18.17;;;;;;;;;;691791;28;1969;-69
2024/01/18 00:28:15;;;;;;;30.75;18.65;;;;;;;;;;692744;28;940;-69
2024/01/18 00:28:35;;;;;;;31.93;19.40;;;;;;;;;;692420;28;1105;-68
2024/01/18 00:28:55;;;;;;;30.47;18.93;;;;;;;;;;688777;28;4408;-69
2024/01/18 00:29:17;;;;;;;30.35;18.40;;;;;;;;;;690122;28;861;-68
2024/01/18 00:29:37;;;;;;;28.83;18.40;;;;;;;;;;689297;28;1672;-69
2024/01/18 00:29:57;;;;;;;28.10;18.80;;;;;;;;;;688814;28;1898;-69
2024/01/18 00:30:18;;;;;;;30.10;19.70;;;;;;;;;;690453;28;1100;-69
2024/01/18 00:30:38;;;;;;;27.23;18.45;;;;;;;;;;686779;28;1011;-69
2024/01/18 00:30:59;;;;;;;27.33;18.30;;;;;;;;;;686588;28;1712;-68
2024/01/18 00:31:19;;;;;;;29.03;18.60;;;;;;;;;;687345;28;1369;-69
2024/01/18 00:31:39;;;;;;;28.10;18.60;;;;;;;;;;687356;28;941;-69
2024/01/18 00:31:59;;;;;;;31.13;18.80;;;;;;;;;;683279;28;4258;-69
2024/01/18 00:32:20;;;;;;;29.30;18.53;;;;;;;;;;684180;28;952;-69
2024/01/18 00:32:41;;;;;;;26.48;18.30;;;;;;;;;;684173;28;1212;-69
2024/01/18 00:33:01;;;;;;;27.40;18.07;;;;;;;;;;684192;28;1879;-69
2024/01/18 00:33:21;;;;;;;29.17;19.13;;;;;;;;;;685253;28;861;-69
2024/01/18 00:33:41;;;;;;;28.63;18.73;;;;;;;;;;684251;28;1529;-69
2024/01/18 00:34:02;;;;;;;27.30;18.37;;;;;;;;;;683459;28;2174;-68
2024/01/18 00:34:22;;;;;;;31.08;19.75;;;;;;;;;;682391;29;948;-69
2024/01/18 00:34:42;;;;;;;30.67;19.83;;;;;;;;;;681383;28;1347;-69
2024/01/18 00:35:02;;;;;;;27.90;18.67;;;;;;;;;;686148;28;4441;-69
2024/01/18 00:35:23;;;;;;;27.23;18.52;;;;;;;;;;683513;28;1060;-69
2024/01/18 00:35:43;;;;;;;30.67;19.70;;;;;;;;;;687032;28;920;-69
2024/01/18 00:36:03;;;;;;;30.03;20.17;;;;;;;;;;686573;28;2157;-69
2024/01/18 00:36:24;;;;;;;29.83;19.98;;;;;;;;;;689429;28;3635;-69
2024/01/18 00:36:49;;;;;;;28.88;19.60;;;;;;;;;;689063;28;1132;-69
2024/01/18 00:37:09;;;;;;;28.30;18.55;;;;;;;;;;689147;28;2351;-69
2024/01/18 00:37:29;;;;;;;30.60;19.07;;;;;;;;;;691440;28;959;-69
2024/01/18 00:37:50;;;;;;;29.87;19.70;;;;;;;;;;689631;28;4694;-69
2024/01/18 00:38:10;;;;;;;29.52;19.45;;;;;;;;;;689063;28;1781;-69
2024/01/18 00:38:30;;;;;;;29.10;18.90;;;;;;;;;;690001;28;1418;-69
2024/01/18 00:38:50;;;;;;;32.23;19.90;;;;;;;;;;689192;28;1372;-69
2024/01/18 00:39:15;;;;;;;31.60;19.40;;;;;;;;;;689376;28;1551;-69
2024/01/18 00:39:39;;;;;;;26.73;19.08;;;;;;;;;;689332;28;937;-69
2024/01/18 00:40:00;;;;;;;29.40;18.63;;;;;;;;;;685130;28;5095;-69
2024/01/18 00:40:20;;;;;;;30.40;19.43;;;;;;;;;;687561;28;1315;-69
2024/01/18 00:40:41;;;;;;;30.85;19.27;;;;;;;;;;687580;28;1025;-69
2024/01/18 00:41:02;;;;;;;30.13;18.95;;;;;;;;;;683180;28;4298;-69
2024/01/18 00:41:22;;;;;;;29.33;18.60;;;;;;;;;;685219;28;905;-69
2024/01/18 00:41:43;;;;;;;27.70;18.33;;;;;;;;;;684577;28;1303;-69
2024/01/18 00:42:03;;;;;;;27.45;18.85;;;;;;;;;;682639;28;1204;-69
2024/01/18 00:42:24;;;;;;;28.70;19.03;;;;;;;;;;685004;28;798;-69
2024/01/18 00:42:44;;;;;;;27.95;18.83;;;;;;;;;;682073;29;1284;-69
2024/01/18 00:43:05;;;;;;;28.20;19.47;;;;;;;;;;680668;28;1248;-69
2024/01/18 00:43:25;;;;;;;29.83;19.17;;;;;;;;;;685224;28;1043;-69
2024/01/18 00:43:46;;;;;;;29.13;18.93;;;;;;;;;;683710;28;4316;-69
2024/01/18 00:44:06;;;;;;;28.07;18.50;;;;;;;;;;681945;28;1850;-69
2024/01/18 00:44:26;;;;;;;27.97;18.77;;;;;;;;;;682683;28;936;-69
2024/01/18 00:44:47;;;;;;;28.70;19.08;;;;;;;;;;684558;28;1136;-69
2024/01/18 00:45:07;;;;;;;28.83;18.80;;;;;;;;;;683196;28;1854;-68
2024/01/18 00:45:27;;;;;;;26.80;18.38;;;;;;;;;;685109;28;997;-69
2024/01/18 00:45:47;;;;;;;29.13;18.90;;;;;;;;;;684827;28;1436;-69
2024/01/18 00:46:08;;;;;;;29.50;18.90;;;;;;;;;;683916;28;1552;-68
2024/01/18 00:46:28;;;;;;;28.57;18.70;;;;;;;;;;685425;28;1362;-69
2024/01/18 00:46:48;;;;;;;29.70;18.60;;;;;;;;;;685909;28;4671;-69
2024/01/18 00:47:09;;;;;;;26.67;18.23;;;;;;;;;;687130;28;1704;-69
2024/01/18 00:47:29;;;;;;;28.63;19.05;;;;;;;;;;685058;28;1248;-69
2024/01/18 00:47:49;;;;;;;27.83;18.40;;;;;;;;;;685875;28;2001;-69
2024/01/18 00:48:09;;;;;;;27.70;18.20;;;;;;;;;;684441;28;2282;-69
2024/01/18 00:48:30;;;;;;;26.67;17.97;;;;;;;;;;690034;28;1087;-69
2024/01/18 00:48:50;;;;;;;26.47;18.40;;;;;;;;;;687049;28;935;-69
2024/01/18 00:49:11;;;;;;;28.50;18.83;;;;;;;;;;686309;28;2317;-69
2024/01/18 00:49:31;;;;;;;29.17;18.50;;;;;;;;;;689842;28;1405;-69
2024/01/18 00:49:51;;;;;;;28.42;17.70;;;;;;;;;;689282;28;4434;-69
2024/01/18 00:50:12;;;;;;;26.50;17.87;;;;;;;;;;689198;28;2355;-69
2024/01/18 00:50:32;;;;;;;28.67;18.53;;;;;;;;;;686935;28;943;-69
2024/01/18 00:50:52;;;;;;;27.05;17.75;;;;;;;;;;687674;28;1152;-69
2024/01/18 00:51:12;;;;;;;27.63;17.60;;;;;;;;;;686018;28;1841;-69
2024/01/18 00:51:33;;;;;;;27.93;17.90;;;;;;;;;;686903;28;882;-69
2024/01/18 00:51:53;;;;;;;27.25;17.90;;;;;;;;;;687448;28;901;-69
2024/01/18 00:52:13;;;;;;;27.80;17.80;;;;;;;;;;685940;28;1813;-69
2024/01/18 00:52:33;;;;;;;25.53;17.77;;;;;;;;;;687021;28;881;-69
2024/01/18 00:52:54;;;;;;;26.08;17.83;;;;;;;;;;687041;28;4299;-69
2024/01/18 00:53:14;;;;;;;29.93;19.23;;;;;;;;;;686782;28;2186;-69
2024/01/18 00:53:34;;;;;;;29.97;18.97;;;;;;;;;;686980;28;927;-69
2024/01/18 00:53:54;;;;;;;28.73;19.20;;;;;;;;;;686923;28;1758;-69
2024/01/18 00:54:15;;;;;;;27.90;18.33;;;;;;;;;;687965;28;876;-69
2024/01/18 00:54:35;;;;;;;27.77;18.00;;;;;;;;;;687019;28;1527;-69
2024/01/18 00:54:55;;;;;;;27.02;17.85;;;;;;;;;;686827;28;2440;-69
2024/01/18 00:55:15;;;;;;;28.10;18.53;;;;;;;;;;687851;28;813;-69
2024/01/18 00:55:36;;;;;;;28.93;19.00;;;;;;;;;;686845;28;1136;-69
2024/01/18 00:55:57;;;;;;;29.77;18.48;;;;;;;;;;685584;28;4378;-69
2024/01/18 00:56:17;;;;;;;29.00;18.43;;;;;;;;;;687747;28;853;-69
2024/01/18 00:56:37;;;;;;;27.90;18.10;;;;;;;;;;686802;28;1108;-69
2024/01/18 00:56:57;;;;;;;28.03;17.97;;;;;;;;;;685638;28;1875;-69
2024/01/18 00:57:18;;;;;;;28.48;18.77;;;;;;;;;;687752;28;1344;-69
2024/01/18 00:57:38;;;;;;;29.33;19.00;;;;;;;;;;686043;28;1388;-69
2024/01/18 00:58:00;;;;;;;31.87;20.43;;;;;;;;;;686976;28;2554;-69
2024/01/18 00:58:20;;;;;;;31.38;20.73;;;;;;;;;;687959;28;951;-67
2024/01/18 00:58:41;;;;;;;30.17;19.93;;;;;;;;;;687358;28;871;-69
2024/01/18 00:59:01;;;;;;;28.77;19.10;;;;;;;;;;685510;28;4268;-69
2024/01/18 00:59:21;;;;;;;29.37;19.17;;;;;;;;;;687528;28;1437;-69
2024/01/18 00:59:42;;;;;;;29.43;19.20;;;;;;;;;;686816;28;1578;-69
2024/01/18 01:00:03;;;;;;;27.47;18.17;;;;;;;;;;684213;28;2067;-69
2024/01/18 01:00:23;;;;;;;28.02;18.48;;;;;;;;;;683278;28;1553;-69
2024/01/18 01:00:44;;;;;;;27.50;18.23;;;;;;;;;;682041;28;1168;-69
2024/01/18 01:01:04;;;;;;;27.70;17.80;;;;;;;;;;684017;28;1982;-68
2024/01/18 01:01:24;;;;;;;29.57;18.00;;;;;;;;;;684127;28;1271;-68
2024/01/18 01:01:44;;;;;;;27.13;17.83;;;;;;;;;;678715;28;4347;-67
2024/01/18 01:02:05;;;;;;;25.83;17.55;;;;;;;;;;678537;29;1834;-69
2024/01/18 01:02:26;;;;;;;28.33;18.45;;;;;;;;;;679460;29;1325;-68
2024/01/18 01:02:51;;;;;;;27.77;18.07;;;;;;;;;;681983;29;1035;-68
2024/01/18 01:03:11;;;;;;;28.00;17.55;;;;;;;;;;681962;28;1988;-68
2024/01/18 01:03:31;;;;;;;26.83;17.83;;;;;;;;;;684772;28;1036;-68
2024/01/18 01:03:51;;;;;;;26.83;18.33;;;;;;;;;;684920;28;853;-68
2024/01/18 01:04:12;;;;;;;26.53;17.90;;;;;;;;;;683591;28;1481;-67
2024/01/18 01:04:32;;;;;;;27.10;17.90;;;;;;;;;;684362;28;926;-67
2024/01/18 01:04:52;;;;;;;26.00;17.83;;;;;;;;;;682934;28;4401;-67
2024/01/18 01:05:12;;;;;;;28.67;18.50;;;;;;;;;;683705;28;1512;-68
2024/01/18 01:05:33;;;;;;;30.13;18.40;;;;;;;;;;684701;28;1113;-67
2024/01/18 01:05:53;;;;;;;31.05;18.75;;;;;;;;;;684186;28;1363;-68
2024/01/18 01:06:13;;;;;;;27.10;18.20;;;;;;;;;;686626;28;1062;-68
2024/01/18 01:06:33;;;;;;;28.53;18.57;;;;;;;;;;684781;28;1312;-68
2024/01/18 01:06:54;;;;;;;26.85;18.13;;;;;;;;;;682096;29;834;-68
2024/01/18 01:07:14;;;;;;;28.10;18.13;;;;;;;;;;680664;28;1564;-68
2024/01/18 01:07:34;;;;;;;29.93;19.03;;;;;;;;;;682004;29;833;-68
2024/01/18 01:07:55;;;;;;;29.05;19.00;;;;;;;;;;681459;28;4357;-68
2024/01/18 01:08:16;;;;;;;28.10;18.47;;;;;;;;;;681066;28;1707;-68
2024/01/18 01:08:37;;;;;;;28.92;18.85;;;;;;;;;;684508;28;999;-68
2024/01/18 01:08:57;;;;;;;30.05;18.92;;;;;;;;;;686523;28;1828;-68
2024/01/18 01:09:17;;;;;;;28.70;18.42;;;;;;;;;;687436;28;1194;-68
2024/01/18 01:09:37;;;;;;;27.40;18.13;;;;;;;;;;687338;28;988;-68
2024/01/18 01:09:58;;;;;;;27.73;18.00;;;;;;;;;;685204;28;3295;-68
2024/01/18 01:10:18;;;;;;;27.67;18.85;;;;;;;;;;687162;28;779;-68
2024/01/18 01:10:38;;;;;;;27.30;18.43;;;;;;;;;;683602;28;1118;-68
2024/01/18 01:11:02;;;;;;;27.43;18.10;;;;;;;;;;685677;28;4307;-68
2024/01/18 01:11:22;;;;;;;26.27;17.75;;;;;;;;;;686841;28;897;-68
2024/01/18 01:11:42;;;;;;;26.07;17.30;;;;;;;;;;687299;28;953;-68
2024/01/18 01:12:03;;;;;;;25.65;17.88;;;;;;;;;;686476;28;1757;-68
2024/01/18 01:12:23;;;;;;;27.90;18.40;;;;;;;;;;687069;28;1362;-68
2024/01/18 01:12:43;;;;;;;27.83;18.33;;;;;;;;;;687010;28;1205;-69
2024/01/18 01:13:03;;;;;;;29.45;18.17;;;;;;;;;;686658;28;1564;-69
2024/01/18 01:13:24;;;;;;;30.17;18.13;;;;;;;;;;690149;28;942;-69
2024/01/18 01:13:45;;;;;;;28.93;18.67;;;;;;;;;;689276;28;4571;-68
2024/01/18 01:14:05;;;;;;;30.00;18.58;;;;;;;;;;689129;28;2994;-68
2024/01/18 01:14:25;;;;;;;29.30;18.95;;;;;;;;;;689347;28;1007;-68
2024/01/18 01:14:46;;;;;;;29.87;18.63;;;;;;;;;;689775;28;1166;-68
2024/01/18 01:15:07;;;;;;;27.33;18.60;;;;;;;;;;686370;28;1809;-68
2024/01/18 01:15:27;;;;;;;29.42;18.85;;;;;;;;;;687610;28;1314;-68
2024/01/18 01:15:48;;;;;;;29.07;18.50;;;;;;;;;;687199;28;992;-68
2024/01/18 01:16:08;;;;;;;28.87;18.20;;;;;;;;;;686661;28;1123;-68
2024/01/18 01:16:28;;;;;;;27.77;18.50;;;;;;;;;;687168;28;1258;-68
2024/01/18 01:16:48;;;;;;;27.20;17.93;;;;;;;;;;685616;28;4362;-68
2024/01/18 01:17:09;;;;;;;28.33;18.23;;;;;;;;;;683363;28;1534;-68
2024/01/18 01:17:29;;;;;;;27.23;17.63;;;;;;;;;;683999;28;3610;-68
2024/01/18 01:17:49;;;;;;;25.00;17.58;;;;;;;;;;680850;29;1328;-68
2024/01/18 01:18:10;;;;;;;27.23;17.77;;;;;;;;;;681086;28;999;-68
2024/01/18 01:18:31;;;;;;;26.45;18.17;;;;;;;;;;681469;29;1049;-68
2024/01/18 01:18:51;;;;;;;29.63;18.33;;;;;;;;;;681932;29;971;-68
2024/01/18 01:19:11;;;;;;;29.13;18.33;;;;;;;;;;683965;28;1878;-68
2024/01/18 01:19:31;;;;;;;29.73;19.07;;;;;;;;;;682068;28;1025;-68
2024/01/18 01:19:52;;;;;;;28.42;18.17;;;;;;;;;;683401;28;4426;-68
2024/01/18 01:20:12;;;;;;;29.50;17.73;;;;;;;;;;683544;28;1660;-68
2024/01/18 01:20:33;;;;;;;28.03;17.60;;;;;;;;;;686538;28;1181;-68
2024/01/18 01:20:53;;;;;;;28.17;17.83;;;;;;;;;;686755;28;870;-68
2024/01/18 01:21:13;;;;;;;28.93;17.77;;;;;;;;;;680985;28;1907;-68
2024/01/18 01:21:34;;;;;;;30.43;17.87;;;;;;;;;;683210;28;989;-68
2024/01/18 01:21:54;;;;;;;29.03;17.13;;;;;;;;;;684619;28;932;-69
2024/01/18 01:22:14;;;;;;;25.37;17.37;;;;;;;;;;683923;28;1763;-67
2024/01/18 01:22:34;;;;;;;25.43;17.60;;;;;;;;;;684030;28;912;-71
2024/01/18 01:22:56;;;;;;;26.47;17.83;;;;;;;;;;685238;28;4275;-68
2024/01/18 01:23:16;;;;;;;29.40;18.17;;;;;;;;;;686691;28;1525;-68
2024/01/18 01:23:41;;;;;;;26.80;18.10;;;;;;;;;;686576;28;1315;-68
2024/01/18 01:24:02;;;;;;;26.42;17.50;;;;;;;;;;685891;28;2392;-68
2024/01/18 01:24:23;;;;;;;27.90;18.38;;;;;;;;;;687740;28;846;-68
2024/01/18 01:24:43;;;;;;;27.00;17.73;;;;;;;;;;687021;28;1008;-68
2024/01/18 01:25:03;;;;;;;28.10;17.97;;;;;;;;;;686243;28;1846;-68
2024/01/18 01:25:24;;;;;;;27.50;17.63;;;;;;;;;;687439;28;826;-68
2024/01/18 01:25:44;;;;;;;28.03;17.57;;;;;;;;;;687095;28;4394;-68
2024/01/18 01:26:04;;;;;;;25.57;17.60;;;;;;;;;;686434;28;2239;-68
2024/01/18 01:26:25;;;;;;;27.03;18.20;;;;;;;;;;687465;28;1203;-68
2024/01/18 01:26:45;;;;;;;27.10;18.57;;;;;;;;;;686728;28;1140;-68
2024/01/18 01:27:08;;;;;;;28.63;17.77;;;;;;;;;;686611;28;2316;-68
2024/01/18 01:27:28;;;;;;;26.98;17.65;;;;;;;;;;687407;28;1010;-68
2024/01/18 01:27:50;;;;;;;26.60;17.63;;;;;;;;;;687482;28;999;-68
2024/01/18 01:28:10;;;;;;;29.65;19.13;;;;;;;;;;685446;28;2199;-68
2024/01/18 01:28:30;;;;;;;27.93;18.23;;;;;;;;;;687529;28;894;-68
2024/01/18 01:28:50;;;;;;;26.53;18.47;;;;;;;;;;686647;28;4536;-68
2024/01/18 01:29:11;;;;;;;26.08;17.77;;;;;;;;;;686143;28;1716;-67
2024/01/18 01:29:32;;;;;;;28.17;18.10;;;;;;;;;;686864;28;1315;-69
2024/01/18 01:29:52;;;;;;;27.88;18.27;;;;;;;;;;686693;28;1172;-68
2024/01/18 01:30:12;;;;;;;26.47;18.23;;;;;;;;;;683886;28;2348;-68
2024/01/18 01:30:33;;;;;;;26.80;18.60;;;;;;;;;;684452;28;910;-68
2024/01/18 01:30:53;;;;;;;29.40;18.83;;;;;;;;;;685803;28;860;-68
2024/01/18 01:31:13;;;;;;;30.15;19.48;;;;;;;;;;686586;28;1734;-68
2024/01/18 01:31:34;;;;;;;28.80;18.77;;;;;;;;;;686915;28;1359;-68
2024/01/18 01:31:54;;;;;;;28.13;19.27;;;;;;;;;;687105;28;4293;-68
2024/01/18 01:32:14;;;;;;;28.67;18.40;;;;;;;;;;686742;28;2287;-68
2024/01/18 01:32:34;;;;;;;28.37;18.53;;;;;;;;;;686292;28;5951;-68
2024/01/18 01:32:55;;;;;;;26.93;18.97;;;;;;;;;;687566;28;936;-68
2024/01/18 01:33:15;;;;;;;27.95;18.95;;;;;;;;;;687405;28;1146;-68
2024/01/18 01:33:35;;;;;;;28.63;18.57;;;;;;;;;;686605;28;1422;-68
2024/01/18 01:33:56;;;;;;;29.33;18.50;;;;;;;;;;688194;28;966;-68
2024/01/18 01:34:16;;;;;;;27.48;17.92;;;;;;;;;;687598;28;1370;-68
2024/01/18 01:34:36;;;;;;;27.13;17.87;;;;;;;;;;687203;28;1279;-68
2024/01/18 01:34:56;;;;;;;26.13;17.60;;;;;;;;;;684972;28;4594;-68
2024/01/18 01:35:18;;;;;;;26.60;17.98;;;;;;;;;;683670;28;2728;-68
2024/01/18 01:35:38;;;;;;;27.33;19.30;;;;;;;;;;681088;29;1354;-68
2024/01/18 01:35:58;;;;;;;28.03;18.83;;;;;;;;;;681526;29;1268;-68
2024/01/18 01:36:19;;;;;;;27.30;18.13;;;;;;;;;;678752;29;979;-68
2024/01/18 01:36:39;;;;;;;26.97;18.23;;;;;;;;;;678904;29;1144;-68
2024/01/18 01:36:59;;;;;;;28.13;19.08;;;;;;;;;;678373;29;1858;-68
2024/01/18 01:37:19;;;;;;;26.70;18.30;;;;;;;;;;676066;29;1332;-68
2024/01/18 01:37:40;;;;;;;28.10;18.03;;;;;;;;;;678861;29;1083;-68
2024/01/18 01:38:00;;;;;;;28.67;18.67;;;;;;;;;;682782;28;4521;-68
2024/01/18 01:38:20;;;;;;;26.60;18.37;;;;;;;;;;690254;28;872;-68
2024/01/18 01:38:40;;;;;;;27.20;17.90;;;;;;;;;;689366;28;1379;-68
2024/01/18 01:39:03;;;;;;;28.57;17.57;;;;;;;;;;688945;28;2531;-68
2024/01/18 01:39:23;;;;;;;27.58;17.60;;;;;;;;;;689677;28;1165;-68
2024/01/18 01:39:43;;;;;;;29.08;18.17;;;;;;;;;;689708;28;1290;-67
2024/01/18 01:40:05;;;;;;;28.53;18.30;;;;;;;;;;687700;28;6149;-68
2024/01/18 01:40:25;;;;;;;29.15;18.15;;;;;;;;;;687343;28;1022;-67
2024/01/18 01:40:45;;;;;;;28.70;18.43;;;;;;;;;;689373;28;4392;-67
2024/01/18 01:41:07;;;;;;;26.90;18.63;;;;;;;;;;691821;28;2307;-67
2024/01/18 01:41:27;;;;;;;27.45;17.60;;;;;;;;;;692691;28;839;-67
2024/01/18 01:41:48;;;;;;;26.83;17.37;;;;;;;;;;691899;28;1091;-67
2024/01/18 01:42:09;;;;;;;26.20;17.40;;;;;;;;;;691182;28;2293;-69
2024/01/18 01:42:29;;;;;;;26.15;17.75;;;;;;;;;;688506;28;955;-68
2024/01/18 01:42:49;;;;;;;27.60;17.37;;;;;;;;;;684188;28;1185;-68
2024/01/18 01:43:10;;;;;;;29.73;18.67;;;;;;;;;;683226;28;2375;-68
2024/01/18 01:43:30;;;;;;;28.70;18.57;;;;;;;;;;683832;28;1537;-68
2024/01/18 01:44:00;;;;;;;26.43;18.17;;;;;;;;;;683130;28;4619;-68
2024/01/18 01:44:20;;;;;;;25.85;16.88;;;;;;;;;;681983;29;1088;-68
2024/01/18 01:44:40;;;;;;;27.23;17.33;;;;;;;;;;682875;28;820;-68
2024/01/18 01:45:01;;;;;;;28.20;18.20;;;;;;;;;;683639;28;2445;-68
2024/01/18 01:45:21;;;;;;;28.27;18.03;;;;;;;;;;684799;28;1051;-68
2024/01/18 01:45:41;;;;;;;26.75;18.10;;;;;;;;;;684601;28;947;-68
2024/01/18 01:46:02;;;;;;;26.23;17.90;;;;;;;;;;683391;28;2180;-68
2024/01/18 01:46:23;;;;;;;26.55;17.50;;;;;;;;;;682044;29;1288;-68
2024/01/18 01:46:43;;;;;;;29.30;17.30;;;;;;;;;;681109;29;4341;-68
2024/01/18 01:47:03;;;;;;;28.03;17.37;;;;;;;;;;680694;29;2268;-68
2024/01/18 01:47:23;;;;;;;26.77;17.47;;;;;;;;;;682014;29;925;-68
2024/01/18 01:47:43;;;;;;;24.83;17.00;;;;;;;;;;681305;29;1190;-68
2024/01/18 01:48:06;;;;;;;25.77;17.35;;;;;;;;;;679577;29;2323;-67
2024/01/18 01:48:26;;;;;;;25.08;17.42;;;;;;;;;;683687;28;898;-68
2024/01/18 01:48:47;;;;;;;25.30;17.50;;;;;;;;;;684022;28;990;-68
2024/01/18 01:49:07;;;;;;;25.53;17.57;;;;;;;;;;682968;28;2259;-68
2024/01/18 01:49:27;;;;;;;26.25;17.58;;;;;;;;;;687284;28;884;-68
2024/01/18 01:49:48;;;;;;;24.43;17.27;;;;;;;;;;686409;28;4485;-67
2024/01/18 01:50:09;;;;;;;23.73;17.50;;;;;;;;;;684990;28;1775;-68
2024/01/18 01:50:29;;;;;;;23.87;17.17;;;;;;;;;;686990;28;1260;-68
2024/01/18 01:50:49;;;;;;;26.27;17.07;;;;;;;;;;687536;28;933;-68
2024/01/18 01:51:10;;;;;;;26.20;17.43;;;;;;;;;;686423;28;1694;-68
2024/01/18 01:51:36;;;;;;;24.85;17.27;;;;;;;;;;687180;28;909;-68
2024/01/18 01:51:56;;;;;;;27.08;17.65;;;;;;;;;;687502;28;825;-68
2024/01/18 01:52:17;;;;;;;25.67;17.77;;;;;;;;;;686251;28;2690;-67
2024/01/18 01:52:38;;;;;;;25.77;18.05;;;;;;;;;;687194;28;971;-68
2024/01/18 01:52:58;;;;;;;25.06;17.76;;;;;;;;;;687245;28;4266;-68
2024/01/18 01:53:19;;;;;;;24.83;17.20;;;;;;;;;;686488;28;1590;-68
2024/01/18 01:53:40;;;;;;;25.95;17.75;;;;;;;;;;687010;28;1256;-68
2024/01/18 01:54:02;;;;;;;28.97;17.77;;;;;;;;;;683825;28;936;-68
2024/01/18 01:54:28;;;;;;;25.98;17.58;;;;;;;;;;684573;28;901;-68
2024/01/18 01:54:49;;;;;;;28.35;17.92;;;;;;;;;;684507;28;1252;-68
2024/01/18 01:55:10;;;;;;;27.80;17.98;;;;;;;;;;683090;28;1830;-68
2024/01/18 01:55:31;;;;;;;27.05;18.35;;;;;;;;;;680262;28;1090;-67
2024/01/18 01:55:52;;;;;;;26.30;18.35;;;;;;;;;;683158;28;4305;-68
2024/01/18 01:56:13;;;;;;;26.20;18.27;;;;;;;;;;684740;28;2311;-68
2024/01/18 01:56:33;;;;;;;25.92;18.52;;;;;;;;;;685109;28;830;-68
2024/01/18 01:56:54;;;;;;;27.27;17.65;;;;;;;;;;685805;28;814;-68
2024/01/18 01:57:16;;;;;;;27.07;17.93;;;;;;;;;;686191;28;1521;-68
2024/01/18 01:57:38;;;;;;;26.40;17.70;;;;;;;;;;684014;28;1105;-68
2024/01/18 01:57:59;;;;;;;26.23;17.83;;;;;;;;;;686808;28;857;-68
2024/01/18 01:58:22;;;;;;;26.55;17.77;;;;;;;;;;686043;28;1503;-68
2024/01/18 01:58:43;;;;;;;24.75;17.30;;;;;;;;;;683307;28;4359;-68
2024/01/18 01:59:07;;;;;;;28.43;17.73;;;;;;;;;;682641;28;2000;-68
2024/01/18 01:59:28;;;;;;;27.20;18.20;;;;;;;;;;682066;28;1314;-68
2024/01/18 01:59:48;;;;;;;26.98;18.17;;;;;;;;;;683412;28;1014;-68
2024/01/18 02:00:09;;;;;;;26.63;17.80;;;;;;;;;;680986;28;1587;-68
2024/01/18 02:00:32;;;;;;;26.95;18.10;;;;;;;;;;683281;28;1264;-68
2024/01/18 02:00:53;;;;;;;28.90;18.37;;;;;;;;;;686452;28;881;-68
2024/01/18 02:01:13;;;;;;;26.33;18.13;;;;;;;;;;686754;28;1802;-68
2024/01/18 02:01:34;;;;;;;27.15;17.67;;;;;;;;;;687427;28;1087;-68
2024/01/18 02:01:55;;;;;;;26.02;16.98;;;;;;;;;;687105;28;4349;-68
2024/01/18 02:02:15;;;;;;;26.33;17.47;;;;;;;;;;686321;28;2127;-69
2024/01/18 02:02:37;;;;;;;26.63;17.63;;;;;;;;;;687467;28;969;-68
2024/01/18 02:02:58;;;;;;;25.77;17.15;;;;;;;;;;687079;28;941;-68
2024/01/18 02:03:18;;;;;;;26.97;17.70;;;;;;;;;;686609;28;1848;-69
2024/01/18 02:03:38;;;;;;;28.08;17.75;;;;;;;;;;687437;28;895;-69
2024/01/18 02:03:58;;;;;;;26.17;17.83;;;;;;;;;;687231;28;1046;-68